Aviation Digital Data Service (ADDS)

Output produced by METARs form (2118 UTC 20 October 2018)
found at http://www.aviationweather.gov/metar/data/
 
KOAJ 201731Z 2018/2118 23010KT P6SM VCSH OVC030 
     FM202000 24010KT 6SM -SHRA OVC020 
     FM202300 27007KT P6SM SCT020 BKN040 
     FM210600 31015G25KT P6SM SKC AMD LTD TO CLD VIS AND WIND
       
KOAK 201721Z 2018/2124 28004KT P6SM SCT006 
     FM202100 29009KT P6SM SKC 
     FM210400 VRB04KT P6SM FEW006 
     FM210900 VRB03KT P6SM SCT006 
     FM211200 00000KT 4SM BR OVC006 
     FM211800 28006KT P6SM SCT007
       
TAF AMD KOFF 201950Z 2019/2124 33012G18KT 9999 SKC QNH3028INS 
     TEMPO 2019/2023 33020G25KT 
     BECMG 2023/2024 VRB06KT 9999 SKC QNH3035INS WND 17006KT AFT 2106 
     BECMG 2114/2115 19012G18KT 9999 SKC QNH3004INS 
     BECMG 2123/2124 VRB06KT 9999 SKC QNH3004INS TX13/2020Z TN03/2109Z
       
KOFK 201721Z 2018/2118 33018G28KT P6SM SKC 
     FM202100 16007KT P6SM SKC 
     FM211400 20016G22KT P6SM SKC
       
KOGB 202016Z 2020/2118 26010G17KT P6SM VCSH SCT020 OVC040 
     FM202300 29008KT P6SM SKC 
     FM211400 02010G18KT P6SM SKC
       
KOGD 201736Z 2018/2118 30006KT P6SM SKC 
     FM210300 17005KT P6SM SCT120 SCT200 
     FM211700 23006KT P6SM SCT080 BKN200
       
KOKC 201720Z 2018/2118 03011KT P6SM SCT250 
     FM210000 08005KT P6SM SCT250 
     FM211400 16011KT P6SM SCT250
       
KOLF 201730Z 2018/2118 14008KT P6SM SKC 
     FM210800 32007KT P6SM SKC
       
KOLM 202013Z 2020/2118 03007KT 4SM BR OVC006 
     FM202100 03006KT 5SM BR BKN009 
     FM202200 02006KT P6SM FEW015 
     FM210400 VRB03KT 2SM BR BKN004 
     FM210600 00000KT 1/4SM FG VV001
       
KOLS 201742Z 2018/2118 13013G22KT P6SM SCT070 SCT250 
     FM211000 09009KT P6SM VCSH SCT050 BKN120
       
KOMA 201721Z 2018/2118 34023G31KT P6SM FEW040 
     FM202300 15007KT P6SM SKC 
     FM211700 18017G23KT P6SM SKC
       
KONP 201723Z 2018/2118 07003KT P6SM SKC 
     FM202100 36012G18KT P6SM SKC 
     FM210500 07006KT P6SM FEW001
       
KONT 201738Z 2018/2124 05008KT P6SM SKC 
     FM202000 28010KT P6SM FEW080 
     FM210200 VRB04KT P6SM SCT080 
     FM212000 28010KT P6SM FEW080
       
KOPF 202102Z 2021/2118 12007KT P6SM SCT025 SCT070 
     FM210000 VRB04KT P6SM FEW025 SCT250 
     FM211600 01008KT P6SM SCT030
       
KORD 202103Z 2021/2124 33022G33KT P6SM BKN050 
     FM202300 33016G24KT P6SM FEW060 
     FM210200 32009KT P6SM SKC 
     FM211300 25008KT P6SM FEW250 
     FM211800 24012KT P6SM FEW120
       
KORF 201809Z 2018/2118 24008KT P6SM -SHRA SCT019 BKN045 OVC100 
     TEMPO 2018/2020 BKN019 OVC045 
     FM202100 25011KT P6SM VCSH BKN080 
     FM210000 25009KT P6SM SCT150 
     FM210200 28013G20KT P6SM SCT200 
     FM211000 31022G37KT P6SM FEW250
       
KORH 201737Z 2018/2118 25012KT P6SM OVC035 
     FM210400 30006KT P6SM BKN035 
     FM210600 31005KT P6SM VCSH BKN025 
     FM210900 34007KT P6SM VCSH BKN015 
     FM211100 34010G19KT 2SM BR VCSH BKN025 
     FM211300 34012G21KT P6SM BKN035 
     FM211500 33013G23KT P6SM SCT045
       
KOTH 201720Z 2018/2118 33005KT 6SM BR SCT005 
     FM202100 35012G20KT P6SM SKC 
     FM210200 36008KT 5SM BR OVC004 
     FM210600 15004KT 2SM BR OVC003 
     FM210900 VRB03KT 1/2SM FG OVC002
       
KOTM 201722Z 2018/2118 31027G37KT P6SM FEW045 
     FM202300 33013G21KT P6SM SKC 
     FM210200 33006KT P6SM SKC 
     FM211200 22005KT P6SM SKC
       
KOUN 201720Z 2018/2118 04011KT P6SM SCT250 
     FM210000 08004KT P6SM SCT250 
     FM211400 15010KT P6SM SCT250
       
KOWB 201725Z 2018/2118 30018G32KT P6SM FEW040 
     FM210000 33017KT P6SM SKC 
     FM210300 35013G21KT P6SM SKC 
     FM211000 35006KT P6SM SKC
       
KOXR 201954Z 2020/2118 20007KT P6SM SKC 
     FM202200 29011KT P6SM SKC 
     FM210300 VRB03KT P6SM SKC 
     FM210900 06004KT P6SM SKC
       
TAF KOZR 201600Z 2016/2122 24006KT 9999 SCT010 SCT025 QNH2998INS 
     BECMG 2020/2021 26009KT 8000 -SHRA VCTS OVC020CB QNH2999INS 
     BECMG 2023/2024 35012G18KT 9999 NSW OVC020 QNH3002INS 
     BECMG 2105/2106 02015G25KT 9999 SKC QNH3012INS TX28/2020Z TN10/2111Z